sensor_id;sensor_type;location;lat;lon;timestamp;pressure;altitude;pressure_sealevel;temperature
17142;BMP180;32805;53.556;9.944;2023-03-05T00:01:24;101479.00;;;4.10
17142;BMP180;32805;53.556;9.944;2023-03-05T00:03:53;101473.00;;;4.10
17142;BMP180;32805;53.556;9.944;2023-03-05T00:06:24;101471.00;;;4.20
17142;BMP180;32805;53.556;9.944;2023-03-05T00:08:52;101468.00;;;4.20
17142;BMP180;32805;53.556;9.944;2023-03-05T00:11:22;101471.00;;;4.10
17142;BMP180;32805;53.556;9.944;2023-03-05T00:13:51;101466.00;;;4.20
17142;BMP180;32805;53.556;9.944;2023-03-05T00:16:21;101468.00;;;4.20
17142;BMP180;32805;53.556;9.944;2023-03-05T00:18:52;101470.00;;;4.30
17142;BMP180;32805;53.556;9.944;2023-03-05T00:21:22;101464.00;;;4.10
17142;BMP180;32805;53.556;9.944;2023-03-05T00:23:50;101454.00;;;4.10
17142;BMP180;32805;53.556;9.944;2023-03-05T00:26:19;101454.00;;;4.10
17142;BMP180;32805;53.556;9.944;2023-03-05T00:28:48;101454.00;;;4.20
17142;BMP180;32805;53.556;9.944;2023-03-05T00:31:17;101459.00;;;4.20
17142;BMP180;32805;53.556;9.944;2023-03-05T00:33:51;101468.00;;;4.10
17142;BMP180;32805;53.556;9.944;2023-03-05T00:36:19;101457.00;;;4.00
17142;BMP180;32805;53.556;9.944;2023-03-05T00:38:47;101464.00;;;4.10
17142;BMP180;32805;53.556;9.944;2023-03-05T00:41:15;101448.00;;;4.10
17142;BMP180;32805;53.556;9.944;2023-03-05T00:43:44;101443.00;;;4.10
17142;BMP180;32805;53.556;9.944;2023-03-05T00:46:12;101441.00;;;4.10
17142;BMP180;32805;53.556;9.944;2023-03-05T00:48:40;101447.00;;;4.00
17142;BMP180;32805;53.556;9.944;2023-03-05T00:51:09;101445.00;;;3.90
17142;BMP180;32805;53.556;9.944;2023-03-05T00:53:36;101433.00;;;4.00
17142;BMP180;32805;53.556;9.944;2023-03-05T00:56:05;101438.00;;;4.00
17142;BMP180;32805;53.556;9.944;2023-03-05T00:58:33;101438.00;;;3.90
17142;BMP180;32805;53.556;9.944;2023-03-05T01:01:01;101423.00;;;4.00
17142;BMP180;32805;53.556;9.944;2023-03-05T01:03:30;101432.00;;;3.90
17142;BMP180;32805;53.556;9.944;2023-03-05T01:05:58;101408.00;;;3.90
17142;BMP180;32805;53.556;9.944;2023-03-05T01:08:28;101420.00;;;3.90
17142;BMP180;32805;53.556;9.944;2023-03-05T01:10:56;101413.00;;;3.80
17142;BMP180;32805;53.556;9.944;2023-03-05T01:13:23;101417.00;;;3.80
17142;BMP180;32805;53.556;9.944;2023-03-05T01:15:51;101408.00;;;3.80
17142;BMP180;32805;53.556;9.944;2023-03-05T01:18:19;101405.00;;;3.90
17142;BMP180;32805;53.556;9.944;2023-03-05T01:20:47;101406.00;;;3.90
17142;BMP180;32805;53.556;9.944;2023-03-05T01:23:15;101398.00;;;3.80
17142;BMP180;32805;53.556;9.944;2023-03-05T01:25:44;101410.00;;;3.80
17142;BMP180;32805;53.556;9.944;2023-03-05T01:28:11;101411.00;;;3.90
17142;BMP180;32805;53.556;9.944;2023-03-05T01:30:39;101403.00;;;3.80
17142;BMP180;32805;53.556;9.944;2023-03-05T01:33:07;101406.00;;;3.80
17142;BMP180;32805;53.556;9.944;2023-03-05T01:35:34;101405.00;;;3.70
17142;BMP180;32805;53.556;9.944;2023-03-05T01:38:02;101395.00;;;3.70
17142;BMP180;32805;53.556;9.944;2023-03-05T01:40:30;101400.00;;;3.70
17142;BMP180;32805;53.556;9.944;2023-03-05T01:43:07;101391.00;;;3.70
17142;BMP180;32805;53.556;9.944;2023-03-05T01:49:03;101393.00;;;3.70
17142;BMP180;32805;53.556;9.944;2023-03-05T01:51:34;101387.00;;;3.70
17142;BMP180;32805;53.556;9.944;2023-03-05T01:54:04;101385.00;;;3.60
17142;BMP180;32805;53.556;9.944;2023-03-05T01:56:33;101383.00;;;3.60
17142;BMP180;32805;53.556;9.944;2023-03-05T01:59:04;101384.00;;;3.60
17142;BMP180;32805;53.556;9.944;2023-03-05T02:01:35;101389.00;;;3.50
17142;BMP180;32805;53.556;9.944;2023-03-05T02:04:06;101375.00;;;3.40
17142;BMP180;32805;53.556;9.944;2023-03-05T02:06:34;101369.00;;;3.40
17142;BMP180;32805;53.556;9.944;2023-03-05T02:09:02;101368.00;;;3.30
17142;BMP180;32805;53.556;9.944;2023-03-05T02:11:30;101372.00;;;3.20
17142;BMP180;32805;53.556;9.944;2023-03-05T02:13:59;101378.00;;;2.90
17142;BMP180;32805;53.556;9.944;2023-03-05T02:16:29;101360.00;;;2.80
17142;BMP180;32805;53.556;9.944;2023-03-05T02:19:03;101374.00;;;2.80
17142;BMP180;32805;53.556;9.944;2023-03-05T02:21:38;101358.00;;;2.70
17142;BMP180;32805;53.556;9.944;2023-03-05T02:24:10;101360.00;;;2.70
17142;BMP180;32805;53.556;9.944;2023-03-05T02:26:38;101370.00;;;2.60
17142;BMP180;32805;53.556;9.944;2023-03-05T02:29:09;101359.00;;;2.60
17142;BMP180;32805;53.556;9.944;2023-03-05T02:31:38;101357.00;;;2.60
17142;BMP180;32805;53.556;9.944;2023-03-05T02:34:06;101344.00;;;2.70
17142;BMP180;32805;53.556;9.944;2023-03-05T02:36:33;101340.00;;;2.80
17142;BMP180;32805;53.556;9.944;2023-03-05T02:39:03;101333.00;;;2.90
17142;BMP180;32805;53.556;9.944;2023-03-05T02:41:31;101340.00;;;2.90
17142;BMP180;32805;53.556;9.944;2023-03-05T02:43:59;101338.00;;;2.90
17142;BMP180;32805;53.556;9.944;2023-03-05T02:46:27;101348.00;;;2.90
17142;BMP180;32805;53.556;9.944;2023-03-05T02:48:54;101328.00;;;2.90
17142;BMP180;32805;53.556;9.944;2023-03-05T02:51:22;101337.00;;;2.90
17142;BMP180;32805;53.556;9.944;2023-03-05T02:53:50;101333.00;;;3.00
17142;BMP180;32805;53.556;9.944;2023-03-05T02:56:21;101318.00;;;2.90
17142;BMP180;32805;53.556;9.944;2023-03-05T02:58:48;101335.00;;;2.80
17142;BMP180;32805;53.556;9.944;2023-03-05T03:01:16;101324.00;;;2.80
17142;BMP180;32805;53.556;9.944;2023-03-05T03:03:44;101323.00;;;2.70
17142;BMP180;32805;53.556;9.944;2023-03-05T03:06:11;101315.00;;;2.70
17142;BMP180;32805;53.556;9.944;2023-03-05T03:08:39;101317.00;;;2.70
17142;BMP180;32805;53.556;9.944;2023-03-05T03:11:09;101314.00;;;2.60
17142;BMP180;32805;53.556;9.944;2023-03-05T03:13:39;101307.00;;;2.70
17142;BMP180;32805;53.556;9.944;2023-03-05T03:16:09;101302.00;;;2.60
17142;BMP180;32805;53.556;9.944;2023-03-05T03:18:36;101306.00;;;2.60
17142;BMP180;32805;53.556;9.944;2023-03-05T03:21:05;101293.00;;;2.60
17142;BMP180;32805;53.556;9.944;2023-03-05T03:23:33;101294.00;;;2.60
17142;BMP180;32805;53.556;9.944;2023-03-05T03:26:01;101285.00;;;2.60
17142;BMP180;32805;53.556;9.944;2023-03-05T03:28:28;101291.00;;;2.50
17142;BMP180;32805;53.556;9.944;2023-03-05T03:30:57;101288.00;;;2.60
17142;BMP180;32805;53.556;9.944;2023-03-05T03:33:25;101300.00;;;2.60
17142;BMP180;32805;53.556;9.944;2023-03-05T03:35:52;101285.00;;;2.60
17142;BMP180;32805;53.556;9.944;2023-03-05T03:38:20;101274.00;;;2.60
17142;BMP180;32805;53.556;9.944;2023-03-05T03:40:48;101276.00;;;2.50
17142;BMP180;32805;53.556;9.944;2023-03-05T03:43:15;101275.00;;;2.50
17142;BMP180;32805;53.556;9.944;2023-03-05T03:45:43;101273.00;;;2.40
17142;BMP180;32805;53.556;9.944;2023-03-05T03:48:12;101276.00;;;2.40
17142;BMP180;32805;53.556;9.944;2023-03-05T03:50:40;101276.00;;;2.50
17142;BMP180;32805;53.556;9.944;2023-03-05T03:53:09;101271.00;;;2.50
17142;BMP180;32805;53.556;9.944;2023-03-05T03:55:40;101265.00;;;2.60
17142;BMP180;32805;53.556;9.944;2023-03-05T03:58:08;101255.00;;;2.60
17142;BMP180;32805;53.556;9.944;2023-03-05T04:00:36;101261.00;;;2.70
17142;BMP180;32805;53.556;9.944;2023-03-05T04:03:03;101261.00;;;2.60
17142;BMP180;32805;53.556;9.944;2023-03-05T04:05:32;101253.00;;;2.70
17142;BMP180;32805;53.556;9.944;2023-03-05T04:08:00;101254.00;;;2.80
17142;BMP180;32805;53.556;9.944;2023-03-05T04:10:28;101255.00;;;2.70
17142;BMP180;32805;53.556;9.944;2023-03-05T04:12:56;101255.00;;;2.70
17142;BMP180;32805;53.556;9.944;2023-03-05T04:15:24;101254.00;;;2.70
17142;BMP180;32805;53.556;9.944;2023-03-05T04:17:51;101252.00;;;2.80
17142;BMP180;32805;53.556;9.944;2023-03-05T04:20:19;101245.00;;;2.80
17142;BMP180;32805;53.556;9.944;2023-03-05T04:22:48;101244.00;;;2.90
17142;BMP180;32805;53.556;9.944;2023-03-05T04:25:16;101253.00;;;2.90
17142;BMP180;32805;53.556;9.944;2023-03-05T04:27:49;101234.00;;;2.90
17142;BMP180;32805;53.556;9.944;2023-03-05T04:30:17;101240.00;;;2.90
17142;BMP180;32805;53.556;9.944;2023-03-05T04:32:45;101238.00;;;2.90
17142;BMP180;32805;53.556;9.944;2023-03-05T04:35:12;101231.00;;;2.90
17142;BMP180;32805;53.556;9.944;2023-03-05T04:37:40;101227.00;;;2.90
17142;BMP180;32805;53.556;9.944;2023-03-05T04:40:10;101233.00;;;2.90
17142;BMP180;32805;53.556;9.944;2023-03-05T04:42:38;101222.00;;;2.90
17142;BMP180;32805;53.556;9.944;2023-03-05T04:45:06;101222.00;;;3.00
17142;BMP180;32805;53.556;9.944;2023-03-05T04:47:35;101226.00;;;3.00
17142;BMP180;32805;53.556;9.944;2023-03-05T04:50:03;101213.00;;;3.00
17142;BMP180;32805;53.556;9.944;2023-03-05T04:52:31;101218.00;;;2.90
17142;BMP180;32805;53.556;9.944;2023-03-05T04:54:59;101217.00;;;2.90
17142;BMP180;32805;53.556;9.944;2023-03-05T04:57:28;101208.00;;;2.90
17142;BMP180;32805;53.556;9.944;2023-03-05T04:59:55;101216.00;;;2.90
17142;BMP180;32805;53.556;9.944;2023-03-05T05:02:23;101203.00;;;3.00
17142;BMP180;32805;53.556;9.944;2023-03-05T05:04:51;101200.00;;;2.90
17142;BMP180;32805;53.556;9.944;2023-03-05T05:07:19;101210.00;;;3.00
17142;BMP180;32805;53.556;9.944;2023-03-05T05:09:46;101200.00;;;3.00
17142;BMP180;32805;53.556;9.944;2023-03-05T05:12:14;101200.00;;;2.90
17142;BMP180;32805;53.556;9.944;2023-03-05T05:14:43;101201.00;;;2.90
17142;BMP180;32805;53.556;9.944;2023-03-05T05:17:11;101192.00;;;2.90
17142;BMP180;32805;53.556;9.944;2023-03-05T05:19:38;101196.00;;;2.80
17142;BMP180;32805;53.556;9.944;2023-03-05T05:22:06;101190.00;;;2.80
17142;BMP180;32805;53.556;9.944;2023-03-05T05:24:33;101191.00;;;2.70
17142;BMP180;32805;53.556;9.944;2023-03-05T05:27:01;101190.00;;;2.70
17142;BMP180;32805;53.556;9.944;2023-03-05T05:29:29;101195.00;;;2.70
17142;BMP180;32805;53.556;9.944;2023-03-05T05:31:58;101186.00;;;2.70
17142;BMP180;32805;53.556;9.944;2023-03-05T05:34:26;101171.00;;;2.80
17142;BMP180;32805;53.556;9.944;2023-03-05T05:36:53;101186.00;;;2.70
17142;BMP180;32805;53.556;9.944;2023-03-05T05:39:21;101179.00;;;2.80
17142;BMP180;32805;53.556;9.944;2023-03-05T05:41:49;101183.00;;;2.80
17142;BMP180;32805;53.556;9.944;2023-03-05T05:44:17;101178.00;;;2.80
17142;BMP180;32805;53.556;9.944;2023-03-05T05:46:45;101191.00;;;2.80
17142;BMP180;32805;53.556;9.944;2023-03-05T05:49:14;101187.00;;;2.80
17142;BMP180;32805;53.556;9.944;2023-03-05T05:51:41;101173.00;;;2.80
17142;BMP180;32805;53.556;9.944;2023-03-05T05:54:11;101177.00;;;2.70
17142;BMP180;32805;53.556;9.944;2023-03-05T05:56:39;101186.00;;;2.80
17142;BMP180;32805;53.556;9.944;2023-03-05T05:59:09;101178.00;;;2.80
17142;BMP180;32805;53.556;9.944;2023-03-05T06:01:36;101187.00;;;2.80
17142;BMP180;32805;53.556;9.944;2023-03-05T06:04:04;101177.00;;;2.90
17142;BMP180;32805;53.556;9.944;2023-03-05T06:06:33;101177.00;;;2.90
17142;BMP180;32805;53.556;9.944;2023-03-05T06:09:01;101188.00;;;2.90
17142;BMP180;32805;53.556;9.944;2023-03-05T06:11:29;101189.00;;;2.80
17142;BMP180;32805;53.556;9.944;2023-03-05T06:13:57;101180.00;;;2.90
17142;BMP180;32805;53.556;9.944;2023-03-05T06:16:25;101179.00;;;2.90
17142;BMP180;32805;53.556;9.944;2023-03-05T06:18:53;101182.00;;;2.90
17142;BMP180;32805;53.556;9.944;2023-03-05T06:21:21;101177.00;;;2.90
17142;BMP180;32805;53.556;9.944;2023-03-05T06:23:50;101172.00;;;2.90
17142;BMP180;32805;53.556;9.944;2023-03-05T06:26:20;101181.00;;;2.90
17142;BMP180;32805;53.556;9.944;2023-03-05T06:28:48;101185.00;;;2.90
17142;BMP180;32805;53.556;9.944;2023-03-05T06:31:17;101189.00;;;2.90
17142;BMP180;32805;53.556;9.944;2023-03-05T06:33:48;101175.00;;;3.00
17142;BMP180;32805;53.556;9.944;2023-03-05T06:36:18;101176.00;;;3.00
17142;BMP180;32805;53.556;9.944;2023-03-05T06:38:47;101184.00;;;3.10
17142;BMP180;32805;53.556;9.944;2023-03-05T06:41:20;101171.00;;;3.00
17142;BMP180;32805;53.556;9.944;2023-03-05T06:43:48;101183.00;;;3.10
17142;BMP180;32805;53.556;9.944;2023-03-05T06:46:18;101183.00;;;3.10
17142;BMP180;32805;53.556;9.944;2023-03-05T06:48:47;101174.00;;;3.10
17142;BMP180;32805;53.556;9.944;2023-03-05T06:51:40;101181.00;;;3.10
17142;BMP180;32805;53.556;9.944;2023-03-05T06:54:10;101170.00;;;3.10
17142;BMP180;32805;53.556;9.944;2023-03-05T06:56:41;101182.00;;;3.10
17142;BMP180;32805;53.556;9.944;2023-03-05T06:59:09;101185.00;;;3.20
17142;BMP180;32805;53.556;9.944;2023-03-05T07:01:44;101184.00;;;3.10
17142;BMP180;32805;53.556;9.944;2023-03-05T07:04:11;101185.00;;;3.10
17142;BMP180;32805;53.556;9.944;2023-03-05T07:06:40;101183.00;;;3.20
17142;BMP180;32805;53.556;9.944;2023-03-05T07:09:10;101189.00;;;3.10
17142;BMP180;32805;53.556;9.944;2023-03-05T07:11:40;101181.00;;;3.20
17142;BMP180;32805;53.556;9.944;2023-03-05T07:14:08;101167.00;;;3.20
17142;BMP180;32805;53.556;9.944;2023-03-05T07:16:35;101171.00;;;3.20
17142;BMP180;32805;53.556;9.944;2023-03-05T07:19:04;101164.00;;;3.20
17142;BMP180;32805;53.556;9.944;2023-03-05T07:21:33;101179.00;;;3.20
17142;BMP180;32805;53.556;9.944;2023-03-05T07:24:05;101177.00;;;3.20
17142;BMP180;32805;53.556;9.944;2023-03-05T07:26:33;101187.00;;;3.20
17142;BMP180;32805;53.556;9.944;2023-03-05T07:29:02;101174.00;;;3.30
17142;BMP180;32805;53.556;9.944;2023-03-05T07:31:30;101172.00;;;3.30
17142;BMP180;32805;53.556;9.944;2023-03-05T07:33:59;101163.00;;;3.40
17142;BMP180;32805;53.556;9.944;2023-03-05T07:36:29;101174.00;;;3.40
17142;BMP180;32805;53.556;9.944;2023-03-05T07:38:56;101175.00;;;3.50
17142;BMP180;32805;53.556;9.944;2023-03-05T07:41:24;101174.00;;;3.50
17142;BMP180;32805;53.556;9.944;2023-03-05T07:43:53;101189.00;;;3.60
17142;BMP180;32805;53.556;9.944;2023-03-05T07:46:24;101176.00;;;3.60
17142;BMP180;32805;53.556;9.944;2023-03-05T07:48:53;101171.00;;;3.50
17142;BMP180;32805;53.556;9.944;2023-03-05T07:51:22;101182.00;;;3.40
17142;BMP180;32805;53.556;9.944;2023-03-05T07:53:51;101177.00;;;3.50
17142;BMP180;32805;53.556;9.944;2023-03-05T07:56:22;101165.00;;;3.60
17142;BMP180;32805;53.556;9.944;2023-03-05T07:58:50;101179.00;;;3.80
17142;BMP180;32805;53.556;9.944;2023-03-05T08:01:18;101163.00;;;3.80
17142;BMP180;32805;53.556;9.944;2023-03-05T08:03:47;101165.00;;;3.80
17142;BMP180;32805;53.556;9.944;2023-03-05T08:06:15;101153.00;;;3.90
17142;BMP180;32805;53.556;9.944;2023-03-05T08:08:45;101146.00;;;4.00
17142;BMP180;32805;53.556;9.944;2023-03-05T08:11:20;101145.00;;;4.10
17142;BMP180;32805;53.556;9.944;2023-03-05T08:13:51;101136.00;;;4.30
17142;BMP180;32805;53.556;9.944;2023-03-05T08:16:20;101141.00;;;4.30
17142;BMP180;32805;53.556;9.944;2023-03-05T08:18:49;101137.00;;;4.20
17142;BMP180;32805;53.556;9.944;2023-03-05T08:21:21;101138.00;;;4.20
17142;BMP180;32805;53.556;9.944;2023-03-05T08:23:49;101130.00;;;4.20
17142;BMP180;32805;53.556;9.944;2023-03-05T08:26:19;101134.00;;;4.20
17142;BMP180;32805;53.556;9.944;2023-03-05T08:28:47;101135.00;;;4.20
17142;BMP180;32805;53.556;9.944;2023-03-05T08:31:16;101135.00;;;4.00
17142;BMP180;32805;53.556;9.944;2023-03-05T08:33:44;101138.00;;;4.00
17142;BMP180;32805;53.556;9.944;2023-03-05T08:36:13;101130.00;;;4.00
17142;BMP180;32805;53.556;9.944;2023-03-05T08:38:41;101145.00;;;4.00
17142;BMP180;32805;53.556;9.944;2023-03-05T08:41:12;101121.00;;;4.10
17142;BMP180;32805;53.556;9.944;2023-03-05T08:43:43;101124.00;;;4.10
17142;BMP180;32805;53.556;9.944;2023-03-05T08:46:15;101115.00;;;4.10
17142;BMP180;32805;53.556;9.944;2023-03-05T08:48:43;101128.00;;;4.10
17142;BMP180;32805;53.556;9.944;2023-03-05T08:51:14;101113.00;;;4.20
17142;BMP180;32805;53.556;9.944;2023-03-05T08:53:43;101111.00;;;4.20
17142;BMP180;32805;53.556;9.944;2023-03-05T08:56:19;101106.00;;;4.30
17142;BMP180;32805;53.556;9.944;2023-03-05T08:58:49;101110.00;;;4.50
17142;BMP180;32805;53.556;9.944;2023-03-05T09:01:18;101106.00;;;4.60
17142;BMP180;32805;53.556;9.944;2023-03-05T09:04:16;101092.00;;;4.70
17142;BMP180;32805;53.556;9.944;2023-03-05T09:06:45;101087.00;;;4.80
17142;BMP180;32805;53.556;9.944;2023-03-05T09:09:13;101084.00;;;4.90
17142;BMP180;32805;53.556;9.944;2023-03-05T09:11:40;101085.00;;;4.90
17142;BMP180;32805;53.556;9.944;2023-03-05T09:14:09;101091.00;;;5.00
17142;BMP180;32805;53.556;9.944;2023-03-05T09:16:38;101084.00;;;5.10
17142;BMP180;32805;53.556;9.944;2023-03-05T09:19:08;101091.00;;;5.10
17142;BMP180;32805;53.556;9.944;2023-03-05T09:21:40;101081.00;;;5.10
17142;BMP180;32805;53.556;9.944;2023-03-05T09:24:09;101073.00;;;5.10
17142;BMP180;32805;53.556;9.944;2023-03-05T09:26:37;101077.00;;;5.20
17142;BMP180;32805;53.556;9.944;2023-03-05T09:29:06;101069.00;;;5.10
17142;BMP180;32805;53.556;9.944;2023-03-05T09:31:34;101074.00;;;5.00
17142;BMP180;32805;53.556;9.944;2023-03-05T09:34:05;101073.00;;;5.00
17142;BMP180;32805;53.556;9.944;2023-03-05T09:36:34;101065.00;;;5.10
17142;BMP180;32805;53.556;9.944;2023-03-05T09:39:02;101063.00;;;5.30
17142;BMP180;32805;53.556;9.944;2023-03-05T09:41:54;101055.00;;;5.50
17142;BMP180;32805;53.556;9.944;2023-03-05T09:44:36;101058.00;;;5.60
17142;BMP180;32805;53.556;9.944;2023-03-05T09:47:22;101041.00;;;5.60
17142;BMP180;32805;53.556;9.944;2023-03-05T09:49:57;101057.00;;;5.40
17142;BMP180;32805;53.556;9.944;2023-03-05T09:52:34;101050.00;;;5.30
17142;BMP180;32805;53.556;9.944;2023-03-05T09:55:11;101055.00;;;5.20
17142;BMP180;32805;53.556;9.944;2023-03-05T09:57:47;101059.00;;;5.10
17142;BMP180;32805;53.556;9.944;2023-03-05T10:00:25;101063.00;;;4.80
17142;BMP180;32805;53.556;9.944;2023-03-05T10:02:58;101045.00;;;4.80
17142;BMP180;32805;53.556;9.944;2023-03-05T10:05:42;101064.00;;;4.70
17142;BMP180;32805;53.556;9.944;2023-03-05T10:08:13;101059.00;;;4.50
17142;BMP180;32805;53.556;9.944;2023-03-05T10:10:47;101065.00;;;4.50
17142;BMP180;32805;53.556;9.944;2023-03-05T10:13:21;101058.00;;;4.30
17142;BMP180;32805;53.556;9.944;2023-03-05T10:16:29;101069.00;;;4.10
17142;BMP180;32805;53.556;9.944;2023-03-05T10:19:06;101081.00;;;4.00
17142;BMP180;32805;53.556;9.944;2023-03-05T10:21:39;101073.00;;;3.80
17142;BMP180;32805;53.556;9.944;2023-03-05T10:24:17;101067.00;;;3.70
17142;BMP180;32805;53.556;9.944;2023-03-05T10:26:57;101069.00;;;3.50
17142;BMP180;32805;53.556;9.944;2023-03-05T10:29:48;101076.00;;;3.50
17142;BMP180;32805;53.556;9.944;2023-03-05T10:32:28;101077.00;;;3.40
17142;BMP180;32805;53.556;9.944;2023-03-05T10:35:14;101076.00;;;3.40
17142;BMP180;32805;53.556;9.944;2023-03-05T10:38:03;101083.00;;;3.50
17142;BMP180;32805;53.556;9.944;2023-03-05T10:40:35;101073.00;;;3.70
17142;BMP180;32805;53.556;9.944;2023-03-05T10:43:16;101061.00;;;4.20
17142;BMP180;32805;53.556;9.944;2023-03-05T10:45:49;101061.00;;;4.40
17142;BMP180;32805;53.556;9.944;2023-03-05T10:48:33;101055.00;;;4.60
17142;BMP180;32805;53.556;9.944;2023-03-05T10:51:10;101048.00;;;4.60
17142;BMP180;32805;53.556;9.944;2023-03-05T10:53:47;101041.00;;;4.40
17142;BMP180;32805;53.556;9.944;2023-03-05T10:56:21;101053.00;;;4.30
17142;BMP180;32805;53.556;9.944;2023-03-05T10:58:49;101040.00;;;4.30
17142;BMP180;32805;53.556;9.944;2023-03-05T11:01:22;101033.00;;;4.30
17142;BMP180;32805;53.556;9.944;2023-03-05T11:03:53;101029.00;;;4.50
17142;BMP180;32805;53.556;9.944;2023-03-05T11:06:30;101026.00;;;4.80
17142;BMP180;32805;53.556;9.944;2023-03-05T11:09:19;101014.00;;;5.00
17142;BMP180;32805;53.556;9.944;2023-03-05T11:12:08;101024.00;;;5.20
17142;BMP180;32805;53.556;9.944;2023-03-05T11:14:39;100996.00;;;5.30
17142;BMP180;32805;53.556;9.944;2023-03-05T11:17:28;100991.00;;;5.20
17142;BMP180;32805;53.556;9.944;2023-03-05T11:20:27;100997.00;;;5.10
17142;BMP180;32805;53.556;9.944;2023-03-05T11:23:03;101000.00;;;5.10
17142;BMP180;32805;53.556;9.944;2023-03-05T11:25:32;100988.00;;;5.10
17142;BMP180;32805;53.556;9.944;2023-03-05T11:28:01;100989.00;;;5.00
17142;BMP180;32805;53.556;9.944;2023-03-05T11:30:30;100986.00;;;5.00
17142;BMP180;32805;53.556;9.944;2023-03-05T11:33:13;100987.00;;;5.10
17142;BMP180;32805;53.556;9.944;2023-03-05T11:35:42;100978.00;;;5.30
17142;BMP180;32805;53.556;9.944;2023-03-05T11:38:17;100978.00;;;5.20
17142;BMP180;32805;53.556;9.944;2023-03-05T11:40:45;100974.00;;;5.20
17142;BMP180;32805;53.556;9.944;2023-03-05T11:43:17;100970.00;;;5.10
17142;BMP180;32805;53.556;9.944;2023-03-05T11:45:46;100962.00;;;5.20
17142;BMP180;32805;53.556;9.944;2023-03-05T11:48:24;100963.00;;;5.40
17142;BMP180;32805;53.556;9.944;2023-03-05T11:50:57;100946.00;;;5.60
17142;BMP180;32805;53.556;9.944;2023-03-05T11:53:28;100941.00;;;5.80
17142;BMP180;32805;53.556;9.944;2023-03-05T11:56:00;100945.00;;;5.60
17142;BMP180;32805;53.556;9.944;2023-03-05T11:58:33;100938.00;;;5.60
17142;BMP180;32805;53.556;9.944;2023-03-05T12:01:05;100923.00;;;5.60
17142;BMP180;32805;53.556;9.944;2023-03-05T12:03:37;100932.00;;;5.60
17142;BMP180;32805;53.556;9.944;2023-03-05T12:06:09;100926.00;;;5.70
17142;BMP180;32805;53.556;9.944;2023-03-05T12:08:43;100925.00;;;5.80
17142;BMP180;32805;53.556;9.944;2023-03-05T12:11:16;100927.00;;;6.00
17142;BMP180;32805;53.556;9.944;2023-03-05T12:13:47;100916.00;;;6.10
17142;BMP180;32805;53.556;9.944;2023-03-05T12:16:21;100921.00;;;6.20
17142;BMP180;32805;53.556;9.944;2023-03-05T12:18:59;100899.00;;;6.40
17142;BMP180;32805;53.556;9.944;2023-03-05T12:21:32;100907.00;;;6.50
17142;BMP180;32805;53.556;9.944;2023-03-05T12:24:03;100909.00;;;6.40
17142;BMP180;32805;53.556;9.944;2023-03-05T12:26:55;100904.00;;;6.40
17142;BMP180;32805;53.556;9.944;2023-03-05T12:29:40;100900.00;;;6.40
17142;BMP180;32805;53.556;9.944;2023-03-05T12:35:34;100891.00;;;6.50
17142;BMP180;32805;53.556;9.944;2023-03-05T12:38:27;100889.00;;;6.50
17142;BMP180;32805;53.556;9.944;2023-03-05T12:41:32;100884.00;;;6.60
17142;BMP180;32805;53.556;9.944;2023-03-05T12:44:16;100882.00;;;6.60
17142;BMP180;32805;53.556;9.944;2023-03-05T12:47:16;100883.00;;;6.50
17142;BMP180;32805;53.556;9.944;2023-03-05T12:49:46;100872.00;;;6.50
17142;BMP180;32805;53.556;9.944;2023-03-05T12:52:22;100891.00;;;6.40
17142;BMP180;32805;53.556;9.944;2023-03-05T12:55:00;100875.00;;;6.50
17142;BMP180;32805;53.556;9.944;2023-03-05T12:57:30;100872.00;;;6.80
17142;BMP180;32805;53.556;9.944;2023-03-05T13:00:01;100867.00;;;7.10
17142;BMP180;32805;53.556;9.944;2023-03-05T13:02:35;100877.00;;;7.20
17142;BMP180;32805;53.556;9.944;2023-03-05T13:05:13;100874.00;;;7.00
17142;BMP180;32805;53.556;9.944;2023-03-05T13:07:42;100867.00;;;6.70
17142;BMP180;32805;53.556;9.944;2023-03-05T13:10:20;100865.00;;;6.80
17142;BMP180;32805;53.556;9.944;2023-03-05T13:12:49;100853.00;;;7.00
17142;BMP180;32805;53.556;9.944;2023-03-05T13:15:19;100855.00;;;6.90
17142;BMP180;32805;53.556;9.944;2023-03-05T13:17:54;100853.00;;;7.00
17142;BMP180;32805;53.556;9.944;2023-03-05T13:20:32;100862.00;;;7.00
17142;BMP180;32805;53.556;9.944;2023-03-05T13:23:08;100850.00;;;6.70
17142;BMP180;32805;53.556;9.944;2023-03-05T13:25:39;100852.00;;;6.50
17142;BMP180;32805;53.556;9.944;2023-03-05T13:28:10;100848.00;;;6.30
17142;BMP180;32805;53.556;9.944;2023-03-05T13:30:43;100845.00;;;6.40
17142;BMP180;32805;53.556;9.944;2023-03-05T13:33:18;100830.00;;;6.40
17142;BMP180;32805;53.556;9.944;2023-03-05T13:35:46;100830.00;;;6.50
17142;BMP180;32805;53.556;9.944;2023-03-05T13:38:23;100808.00;;;6.70
17142;BMP180;32805;53.556;9.944;2023-03-05T13:41:14;100822.00;;;6.70
17142;BMP180;32805;53.556;9.944;2023-03-05T13:43:46;100827.00;;;6.60
17142;BMP180;32805;53.556;9.944;2023-03-05T13:46:22;100820.00;;;6.60
17142;BMP180;32805;53.556;9.944;2023-03-05T13:48:51;100816.00;;;6.70
17142;BMP180;32805;53.556;9.944;2023-03-05T13:51:19;100826.00;;;6.80
17142;BMP180;32805;53.556;9.944;2023-03-05T13:53:48;100813.00;;;6.60
17142;BMP180;32805;53.556;9.944;2023-03-05T13:56:18;100818.00;;;6.50
17142;BMP180;32805;53.556;9.944;2023-03-05T13:58:49;100824.00;;;6.50
17142;BMP180;32805;53.556;9.944;2023-03-05T14:01:26;100813.00;;;6.50
17142;BMP180;32805;53.556;9.944;2023-03-05T14:03:58;100814.00;;;6.40
17142;BMP180;32805;53.556;9.944;2023-03-05T14:06:27;100823.00;;;6.40
17142;BMP180;32805;53.556;9.944;2023-03-05T14:09:02;100814.00;;;6.30
17142;BMP180;32805;53.556;9.944;2023-03-05T14:11:31;100809.00;;;6.40
17142;BMP180;32805;53.556;9.944;2023-03-05T14:14:05;100809.00;;;6.40
17142;BMP180;32805;53.556;9.944;2023-03-05T14:16:34;100820.00;;;6.40
17142;BMP180;32805;53.556;9.944;2023-03-05T14:19:04;100824.00;;;6.30
17142;BMP180;32805;53.556;9.944;2023-03-05T14:21:44;100796.00;;;6.20
17142;BMP180;32805;53.556;9.944;2023-03-05T14:24:13;100799.00;;;6.20
17142;BMP180;32805;53.556;9.944;2023-03-05T14:26:47;100801.00;;;6.20
17142;BMP180;32805;53.556;9.944;2023-03-05T14:29:17;100800.00;;;6.40
17142;BMP180;32805;53.556;9.944;2023-03-05T14:31:48;100783.00;;;6.40
17142;BMP180;32805;53.556;9.944;2023-03-05T14:34:23;100783.00;;;6.50
17142;BMP180;32805;53.556;9.944;2023-03-05T14:36:53;100789.00;;;6.60
17142;BMP180;32805;53.556;9.944;2023-03-05T14:39:27;100771.00;;;6.60